createdAt,value
2018-10-19T00:00:50.030Z,98408.73
2018-10-19T00:03:18.227Z,98406.67
2018-10-19T00:05:46.398Z,98405.86
2018-10-19T00:08:14.566Z,98405.98
2018-10-19T00:10:42.798Z,98409.57
2018-10-19T00:13:11.014Z,98406.49
2018-10-19T00:15:39.194Z,98416.00
2018-10-19T00:18:07.734Z,98414.22
2018-10-19T00:20:36.254Z,98410.40
2018-10-19T00:23:04.463Z,98418.27
2018-10-19T00:25:32.650Z,98420.67
2018-10-19T00:28:00.817Z,98419.69
2018-10-19T00:30:29.378Z,98421.52
2018-10-19T00:32:57.678Z,98418.83
2018-10-19T00:35:25.829Z,98416.91
2018-10-19T00:37:54.020Z,98418.32
2018-10-19T00:40:22.269Z,98415.27
2018-10-19T00:42:50.583Z,98407.81
2018-10-19T00:45:18.788Z,98417.95
2018-10-19T00:47:46.965Z,98411.55
2018-10-19T00:50:15.173Z,98408.81
2018-10-19T00:52:43.328Z,98422.27
2018-10-19T00:55:11.617Z,98417.65
2018-10-19T00:57:39.851Z,98428.03
2018-10-19T01:00:08.048Z,98425.82
2018-10-19T01:02:36.244Z,98415.36
2018-10-19T01:05:04.518Z,98416.72
2018-10-19T01:07:32.672Z,98413.45
2018-10-19T01:10:00.862Z,98415.91
2018-10-19T01:12:29.034Z,98415.30
2018-10-19T01:14:57.212Z,98420.96
2018-10-19T01:17:25.398Z,98417.61
2018-10-19T01:19:53.573Z,98417.23
2018-10-19T01:22:21.743Z,98415.69
2018-10-19T01:24:49.929Z,98416.05
2018-10-19T01:27:18.126Z,98423.73
2018-10-19T01:29:46.309Z,98422.72
2018-10-19T01:32:14.529Z,98419.27
2018-10-19T01:34:42.794Z,98418.22
2018-10-19T01:37:10.953Z,98421.48
2018-10-19T01:39:39.133Z,98423.82
2018-10-19T01:42:07.328Z,98422.22
2018-10-19T01:44:35.495Z,98422.22
2018-10-19T01:47:03.694Z,98417.91
2018-10-19T01:49:31.843Z,98422.53
2018-10-19T01:52:00.029Z,98425.05
2018-10-19T01:54:28.260Z,98431.31
2018-10-19T01:56:56.489Z,98430.45
2018-10-19T01:59:24.626Z,98435.70
2018-10-19T02:01:52.806Z,98428.10
2018-10-19T02:04:21.062Z,98424.38
2018-10-19T02:06:49.254Z,98425.78
2018-10-19T02:09:17.432Z,98433.45
2018-10-19T02:11:45.684Z,98432.73
2018-10-19T02:14:13.885Z,98434.88
2018-10-19T02:16:42.626Z,98425.40
2018-10-19T02:19:11.679Z,98427.08
2018-10-19T02:21:39.879Z,98430.20
2018-10-19T02:24:08.137Z,98430.57
2018-10-19T02:26:36.397Z,98432.28
2018-10-19T02:29:04.815Z,98430.80
2018-10-19T02:31:32.957Z,98424.28
2018-10-19T02:34:01.233Z,98425.41
2018-10-19T02:36:29.430Z,98428.85
2018-10-19T02:38:57.793Z,98424.41
2018-10-19T02:41:25.953Z,98415.15
2018-10-19T02:43:54.129Z,98423.24
2018-10-19T02:46:22.324Z,98419.88
2018-10-19T02:48:50.569Z,98422.89
2018-10-19T02:51:18.816Z,98424.00
2018-10-19T02:53:46.937Z,98422.14
2018-10-19T02:56:15.123Z,98422.53
2018-10-19T02:58:43.296Z,98426.44
2018-10-19T03:01:11.475Z,98428.73
2018-10-19T03:03:39.721Z,98420.63
2018-10-19T03:06:07.928Z,98420.43
2018-10-19T03:08:36.201Z,98424.30
2018-10-19T03:11:05.294Z,98425.78
2018-10-19T03:13:33.416Z,98421.97
2018-10-19T03:16:01.699Z,98422.70
2018-10-19T03:18:29.921Z,98428.66
2018-10-19T03:20:58.171Z,98428.36
2018-10-19T03:23:26.378Z,98430.09
2018-10-19T03:25:54.574Z,98431.23
2018-10-19T03:28:22.757Z,98434.82
2018-10-19T03:30:51.157Z,98427.73
2018-10-19T03:33:19.243Z,98434.89
2018-10-19T03:35:47.367Z,98428.05
2018-10-19T03:38:15.542Z,98424.48
2018-10-19T03:40:43.723Z,98432.30
2018-10-19T03:43:11.943Z,98430.70
2018-10-19T03:45:40.130Z,98432.56
2018-10-19T03:48:08.301Z,98432.64
2018-10-19T03:50:36.489Z,98434.65
2018-10-19T03:53:05.241Z,98434.36
2018-10-19T03:55:34.491Z,98434.91
2018-10-19T03:58:02.754Z,98429.65
2018-10-19T04:00:30.949Z,98436.92
2018-10-19T04:02:59.158Z,98435.97
2018-10-19T04:05:27.305Z,98439.73
2018-10-19T04:07:55.538Z,98430.58
2018-10-19T04:10:23.705Z,98430.77
2018-10-19T04:12:51.888Z,98432.98
2018-10-19T04:15:20.095Z,98438.75
2018-10-19T04:17:48.327Z,98437.59
2018-10-19T04:20:16.529Z,98441.95
2018-10-19T04:25:38.606Z,98448.88
2018-10-19T04:28:06.840Z,98443.98
2018-10-19T04:30:36.280Z,98442.40
2018-10-19T04:33:04.605Z,98441.75
2018-10-19T04:35:32.826Z,98439.64
2018-10-19T04:38:01.116Z,98449.46
2018-10-19T04:40:29.332Z,98444.06
2018-10-19T04:42:57.519Z,98441.38
2018-10-19T04:45:26.098Z,98451.13
2018-10-19T04:47:54.326Z,98448.25
2018-10-19T04:50:22.510Z,98448.66
2018-10-19T04:52:51.022Z,98450.66
2018-10-19T04:55:21.453Z,98460.77
2018-10-19T04:57:49.661Z,98462.52
2018-10-19T05:00:19.973Z,98460.11
2018-10-19T05:02:48.911Z,98462.02
2018-10-19T05:05:17.201Z,98454.45
2018-10-19T05:08:10.048Z,98464.62
2018-10-19T05:10:38.249Z,98456.47
2018-10-19T05:13:06.463Z,98461.48
2018-10-19T05:15:34.615Z,98460.22
2018-10-19T05:18:02.785Z,98465.16
2018-10-19T05:20:31.061Z,98461.25
2018-10-19T05:22:59.251Z,98464.41
2018-10-19T05:25:27.555Z,98469.09
2018-10-19T05:27:55.712Z,98464.45
2018-10-19T05:30:23.994Z,98459.26
2018-10-19T05:32:52.206Z,98467.11
2018-10-19T05:35:20.405Z,98467.97
2018-10-19T05:37:48.592Z,98473.42
2018-10-19T05:40:16.768Z,98470.44
2018-10-19T05:42:45.294Z,98477.98
2018-10-19T05:45:13.729Z,98480.89
2018-10-19T05:47:42.010Z,98484.55
2018-10-19T05:50:11.585Z,98479.59
2018-10-19T05:52:39.838Z,98487.49
2018-10-19T05:55:08.785Z,98491.88
2018-10-19T05:57:37.313Z,98495.00
2018-10-19T06:00:07.280Z,98497.45
2018-10-19T06:02:35.613Z,98494.61
2018-10-19T06:05:03.791Z,98497.10
2018-10-19T06:07:31.934Z,98501.59
2018-10-19T06:10:00.102Z,98504.86
2018-10-19T06:12:28.344Z,98503.77
2018-10-19T06:14:56.557Z,98507.81
2018-10-19T06:17:24.741Z,98505.35
2018-10-19T06:19:53.036Z,98520.58
2018-10-19T06:22:21.157Z,98519.59
2018-10-19T06:24:49.418Z,98519.98
2018-10-19T06:27:17.676Z,98525.09
2018-10-19T06:29:46.018Z,98523.39
2018-10-19T06:32:14.239Z,98524.55
2018-10-19T06:34:42.353Z,98532.12
2018-10-19T06:37:10.628Z,98531.88
2018-10-19T06:39:38.876Z,98527.69
2018-10-19T06:42:07.066Z,98531.50
2018-10-19T06:44:35.280Z,98535.65
2018-10-19T06:47:03.598Z,98534.30
2018-10-19T06:49:31.718Z,98533.39
2018-10-19T06:52:00.272Z,98543.69
2018-10-19T06:54:28.442Z,98542.88
2018-10-19T06:56:56.710Z,98551.27
2018-10-19T06:59:25.125Z,98550.18
2018-10-19T07:01:53.868Z,98547.81
2018-10-19T07:04:22.037Z,98547.20
2018-10-19T07:06:50.221Z,98546.17
2018-10-19T07:09:18.489Z,98543.71
2018-10-19T07:11:46.665Z,98550.03
2018-10-19T07:14:14.921Z,98550.41
2018-10-19T07:16:43.121Z,98560.28
2018-10-19T07:19:11.470Z,98558.95
2018-10-19T07:21:39.637Z,98557.52
2018-10-19T07:24:07.776Z,98558.47
2018-10-19T07:26:35.957Z,98562.65
2018-10-19T07:29:04.654Z,98558.55
2018-10-19T07:31:32.826Z,98559.28
2018-10-19T07:34:01.061Z,98563.88
2018-10-19T07:36:29.291Z,98563.23
2018-10-19T07:38:57.498Z,98567.33
2018-10-19T07:41:25.677Z,98562.57
2018-10-19T07:43:53.892Z,98572.19
2018-10-19T07:46:22.057Z,98566.02
2018-10-19T07:48:50.301Z,98564.28
2018-10-19T07:51:18.497Z,98566.06
2018-10-19T07:53:46.742Z,98563.95
2018-10-19T07:56:15.085Z,98559.92
2018-10-19T07:58:43.574Z,98562.38
2018-10-19T08:01:11.799Z,98564.61
2018-10-19T08:03:40.011Z,98564.77
2018-10-19T08:06:08.437Z,98560.98
2018-10-19T08:08:36.613Z,98565.14
2018-10-19T08:11:05.103Z,98571.41
2018-10-19T08:13:33.285Z,98564.20
2018-10-19T08:16:01.463Z,98566.92
2018-10-19T08:18:29.637Z,98571.55
2018-10-19T08:20:57.848Z,98567.63
2018-10-19T08:23:26.066Z,98562.81
2018-10-19T08:25:54.390Z,98566.15
2018-10-19T08:28:22.789Z,98569.91
2018-10-19T08:30:51.045Z,98557.97
2018-10-19T08:33:19.225Z,98566.63
2018-10-19T08:35:47.422Z,98572.66
2018-10-19T08:38:15.622Z,98568.77
2018-10-19T08:40:44.201Z,98566.19
2018-10-19T08:43:12.409Z,98569.22
2018-10-19T08:45:40.547Z,98577.69
2018-10-19T08:48:08.715Z,98568.99
2018-10-19T08:50:36.926Z,98569.40
2018-10-19T08:53:05.232Z,98569.63
2018-10-19T08:55:33.594Z,98572.89
2018-10-19T08:58:02.085Z,98570.89
2018-10-19T09:00:30.060Z,98567.92
2018-10-19T09:02:58.300Z,98572.18
2018-10-19T09:05:26.569Z,98571.19
2018-10-19T09:07:54.835Z,98570.64
2018-10-19T09:10:23.002Z,98575.25
2018-10-19T09:12:51.294Z,98575.06
2018-10-19T09:15:19.399Z,98579.47
2018-10-19T09:17:47.633Z,98578.38
2018-10-19T09:20:15.869Z,98579.78
2018-10-19T09:22:44.044Z,98586.35
2018-10-19T09:25:12.225Z,98586.03
2018-10-19T09:27:40.451Z,98589.64
2018-10-19T09:30:08.941Z,98592.91
2018-10-19T09:32:37.115Z,98600.03
2018-10-19T09:35:05.730Z,98591.48
2018-10-19T09:37:33.889Z,98593.65
2018-10-19T09:40:02.183Z,98585.63
2018-10-19T09:42:30.376Z,98588.30
2018-10-19T09:44:59.026Z,98590.22
2018-10-19T09:47:27.228Z,98593.43
2018-10-19T09:49:55.364Z,98582.09
2018-10-19T09:52:23.558Z,98581.30
2018-10-19T09:54:51.780Z,98588.07
2018-10-19T09:57:19.976Z,98588.42
2018-10-19T09:59:48.172Z,98580.20
2018-10-19T10:02:16.419Z,98582.30
2018-10-19T10:04:44.690Z,98587.88
2018-10-19T10:07:12.931Z,98581.48
2018-10-19T10:09:41.153Z,98583.67
2018-10-19T10:12:09.350Z,98579.61
2018-10-19T10:14:37.522Z,98580.49
2018-10-19T10:17:05.876Z,98580.25
2018-10-19T10:19:34.050Z,98576.72
2018-10-19T10:22:02.358Z,98573.39
2018-10-19T10:24:30.598Z,98578.47
2018-10-19T10:26:58.969Z,98571.36
2018-10-19T10:29:27.673Z,98557.75
2018-10-19T10:31:55.908Z,98556.66
2018-10-19T10:34:24.062Z,98553.78
2018-10-19T10:36:52.275Z,98550.25
2018-10-19T10:39:20.435Z,98549.46
2018-10-19T10:41:48.609Z,98550.09
2018-10-19T10:44:16.955Z,98539.13
2018-10-19T10:46:45.172Z,98534.84
2018-10-19T10:49:13.369Z,98537.33
2018-10-19T10:51:41.605Z,98534.80
2018-10-19T10:54:09.793Z,98529.84
2018-10-19T10:56:47.560Z,98532.78
2018-10-19T10:59:15.976Z,98528.58
2018-10-19T11:01:44.466Z,98516.30
2018-10-19T11:04:12.769Z,98517.91
2018-10-19T11:06:40.876Z,98509.23
2018-10-19T11:09:10.581Z,98514.43
2018-10-19T11:11:38.753Z,98509.96
2018-10-19T11:14:06.976Z,98507.45
2018-10-19T11:16:35.266Z,98499.00
2018-10-19T11:19:03.624Z,98502.62
2018-10-19T11:21:31.804Z,98500.81
2018-10-19T11:24:00.317Z,98500.41
2018-10-19T11:26:28.466Z,98496.97
2018-10-19T11:28:56.658Z,98491.98
2018-10-19T11:31:24.856Z,98490.16
2018-10-19T11:33:53.098Z,98490.45
2018-10-19T11:36:21.403Z,98485.14
2018-10-19T11:38:49.805Z,98488.92
2018-10-19T11:41:18.037Z,98488.48
2018-10-19T11:43:46.287Z,98487.38
2018-10-19T11:46:14.928Z,98485.88
2018-10-19T11:48:43.073Z,98475.86
2018-10-19T11:51:11.417Z,98478.98
2018-10-19T11:53:39.585Z,98475.83
2018-10-19T11:56:07.891Z,98475.02
2018-10-19T11:58:36.140Z,98476.64
2018-10-19T12:01:04.583Z,98472.21
2018-10-19T12:03:32.861Z,98467.22
2018-10-19T12:06:01.135Z,98467.36
2018-10-19T12:08:29.304Z,98467.67
2018-10-19T12:10:57.542Z,98461.83
2018-10-19T12:13:25.809Z,98465.80
2018-10-19T12:15:54.102Z,98457.66
2018-10-19T12:18:23.345Z,98462.02
2018-10-19T12:20:51.613Z,98454.80
2018-10-19T12:23:19.850Z,98445.55
2018-10-19T12:25:48.189Z,98447.84
2018-10-19T12:28:16.374Z,98446.95
2018-10-19T12:30:44.628Z,98441.56
2018-10-19T12:33:12.829Z,98449.26
2018-10-19T12:35:41.017Z,98443.14
2018-10-19T12:38:09.162Z,98435.92
2018-10-19T12:40:37.467Z,98427.53
2018-10-19T12:43:06.479Z,98436.58
2018-10-19T12:46:44.766Z,98433.45
2018-10-19T12:49:14.400Z,98430.95
2018-10-19T12:51:42.570Z,98428.64
2018-10-19T12:54:10.899Z,98427.05
2018-10-19T12:56:39.085Z,98420.73
2018-10-19T12:59:07.534Z,98424.33
2018-10-19T13:01:35.992Z,98421.13
2018-10-19T13:04:04.385Z,98426.25
2018-10-19T13:06:32.597Z,98421.02
2018-10-19T13:09:00.910Z,98426.29
2018-10-19T13:11:29.121Z,98422.52
2018-10-19T13:13:57.337Z,98421.08
2018-10-19T13:16:25.597Z,98419.37
2018-10-19T13:18:53.843Z,98421.23
2018-10-19T13:21:22.391Z,98422.91
2018-10-19T13:23:50.578Z,98419.98
2018-10-19T13:26:18.762Z,98423.43
2018-10-19T13:28:46.939Z,98424.20
2018-10-19T13:31:15.202Z,98424.29
2018-10-19T13:33:43.505Z,98422.39
2018-10-19T13:36:11.781Z,98423.33
2018-10-19T13:38:39.958Z,98424.93
2018-10-19T13:41:08.127Z,98422.92
2018-10-19T13:43:36.411Z,98419.57
2018-10-19T13:46:04.859Z,98423.76
2018-10-19T13:48:33.061Z,98424.16
2018-10-19T13:51:01.874Z,98430.70
2018-10-19T13:53:30.029Z,98425.36
2018-10-19T13:55:58.213Z,98425.23
2018-10-19T13:58:26.429Z,98422.01
2018-10-19T14:00:54.609Z,98417.59
2018-10-19T14:03:22.827Z,98429.16
2018-10-19T14:05:51.659Z,98412.27
2018-10-19T14:08:19.841Z,98415.16
2018-10-19T14:10:48.142Z,98414.67
2018-10-19T14:13:16.382Z,98415.31
2018-10-19T14:15:44.611Z,98415.49
2018-10-19T14:18:12.823Z,98411.94
2018-10-19T14:20:41.030Z,98428.63
2018-10-19T14:23:09.311Z,98422.50
2018-10-19T14:25:37.453Z,98425.58
2018-10-19T14:28:05.964Z,98419.47
2018-10-19T14:30:34.153Z,98417.02
2018-10-19T14:33:02.371Z,98416.66
2018-10-19T14:35:30.929Z,98415.85
2018-10-19T14:37:59.193Z,98420.31
2018-10-19T14:40:27.826Z,98425.33
2018-10-19T14:42:56.631Z,98431.73
2018-10-19T14:45:24.984Z,98429.66
2018-10-19T14:47:53.173Z,98428.59
2018-10-19T14:50:21.658Z,98422.21
2018-10-19T14:52:50.128Z,98418.50
2018-10-19T14:55:19.703Z,98427.64
2018-10-19T14:57:47.926Z,98425.38
2018-10-19T15:00:17.735Z,98423.19
2018-10-19T15:02:46.065Z,98429.03
2018-10-19T15:05:16.129Z,98424.70
2018-10-19T15:07:44.484Z,98419.04
2018-10-19T15:10:16.092Z,98422.16
2018-10-19T15:12:44.284Z,98425.27
2018-10-19T15:15:14.935Z,98433.86
2018-10-19T15:17:43.462Z,98427.78
2018-10-19T15:20:12.203Z,98432.19
2018-10-19T15:22:40.725Z,98433.09
2018-10-19T15:25:09.598Z,98434.58
2018-10-19T15:27:38.356Z,98436.58
2018-10-19T15:30:07.896Z,98437.34
2018-10-19T15:32:36.227Z,98438.00
2018-10-19T15:35:04.422Z,98437.14
2018-10-19T15:37:32.624Z,98435.36
2018-10-19T15:40:00.809Z,98448.08
2018-10-19T15:42:29.001Z,98436.02
2018-10-19T15:44:57.349Z,98435.12
2018-10-19T15:47:26.721Z,98442.45
2018-10-19T15:49:56.419Z,98433.72
2018-10-19T15:52:24.669Z,98437.20
2018-10-19T15:54:53.169Z,98439.02
2018-10-19T15:57:21.586Z,98444.18
2018-10-19T15:59:49.817Z,98449.17
2018-10-19T16:02:18.213Z,98450.22
2018-10-19T16:04:47.150Z,98446.30
2018-10-19T16:07:15.579Z,98443.88
2018-10-19T16:09:43.768Z,98443.86
2018-10-19T16:12:12.042Z,98446.85
2018-10-19T16:14:40.231Z,98457.45
2018-10-19T16:17:08.406Z,98456.13
2018-10-19T16:19:36.944Z,98458.94
2018-10-19T16:22:05.742Z,98464.66
2018-10-19T16:24:33.970Z,98462.22
2018-10-19T16:27:02.189Z,98463.71
2018-10-19T16:29:30.357Z,98463.53
2018-10-19T16:31:58.579Z,98469.05
2018-10-19T16:34:27.186Z,98468.81
2018-10-19T16:36:55.406Z,98468.63
2018-10-19T16:39:23.586Z,98473.20
2018-10-19T16:41:51.765Z,98479.65
2018-10-19T16:44:20.050Z,98471.59
2018-10-19T16:46:48.258Z,98474.67
2018-10-19T16:49:16.619Z,98481.19
2018-10-19T16:51:44.797Z,98486.54
2018-10-19T16:54:13.138Z,98492.47
2018-10-19T16:56:41.159Z,98489.96
2018-10-19T16:59:09.321Z,98498.27
2018-10-19T17:01:37.930Z,98492.12
2018-10-19T17:04:06.373Z,98495.31
2018-10-19T17:06:34.529Z,98495.55
2018-10-19T17:09:02.778Z,98503.41
2018-10-19T17:11:31.069Z,98503.30
2018-10-19T17:13:59.241Z,98494.77
2018-10-19T17:16:27.719Z,98503.98
2018-10-19T17:18:55.949Z,98505.78
2018-10-19T17:21:24.125Z,98506.35
2018-10-19T17:23:52.376Z,98512.72
2018-10-19T17:26:20.506Z,98513.86
2018-10-19T17:28:48.679Z,98519.66
2018-10-19T17:31:17.655Z,98519.43
2018-10-19T17:33:46.006Z,98524.66
2018-10-19T17:36:14.075Z,98531.09
2018-10-19T17:38:42.216Z,98534.27
2018-10-19T17:41:10.586Z,98535.39
2018-10-19T17:43:38.998Z,98537.89
2018-10-19T17:46:07.498Z,98536.42
2018-10-19T17:48:35.979Z,98540.50
2018-10-19T17:51:04.491Z,98532.27
2018-10-19T17:53:32.640Z,98542.15
2018-10-19T17:56:00.831Z,98533.50
2018-10-19T17:58:29.061Z,98540.09
2018-10-19T18:00:57.359Z,98536.00
2018-10-19T18:03:25.551Z,98548.62
2018-10-19T18:05:53.796Z,98541.80
2018-10-19T18:08:21.970Z,98552.13
2018-10-19T18:10:50.192Z,98550.97
2018-10-19T18:13:18.737Z,98559.07
2018-10-19T18:15:47.068Z,98557.85
2018-10-19T18:18:15.405Z,98565.08
2018-10-19T18:20:43.765Z,98566.27
2018-10-19T18:23:12.075Z,98565.88
2018-10-19T18:25:40.253Z,98570.49
2018-10-19T18:28:08.427Z,98562.18
2018-10-19T18:30:36.624Z,98569.92
2018-10-19T18:33:05.285Z,98566.14
2018-10-19T18:35:33.473Z,98565.04
2018-10-19T18:38:01.694Z,98566.79
2018-10-19T18:40:29.908Z,98570.04
2018-10-19T18:42:58.090Z,98564.55
2018-10-19T18:45:26.361Z,98570.63
2018-10-19T18:47:54.878Z,98578.27
2018-10-19T18:50:23.273Z,98585.47
2018-10-19T18:52:51.421Z,98579.41
2018-10-19T18:55:21.027Z,98584.06
2018-10-19T18:57:49.549Z,98586.98
2018-10-19T19:00:17.832Z,98593.64
2018-10-19T19:02:46.035Z,98591.11
2018-10-19T19:05:14.312Z,98598.42
2018-10-19T19:07:42.749Z,98604.91
2018-10-19T19:10:10.955Z,98612.64
2018-10-19T19:12:39.245Z,98612.52
2018-10-19T19:15:07.828Z,98617.71
2018-10-19T19:17:36.113Z,98614.11
2018-10-19T19:20:10.212Z,98612.69
2018-10-19T19:22:38.385Z,98620.44
2018-10-19T19:25:11.860Z,98623.64
2018-10-19T19:27:40.069Z,98621.64
2018-10-19T19:30:08.659Z,98621.88
2018-10-19T19:32:37.873Z,98632.73
2018-10-19T19:35:06.110Z,98634.64
2018-10-19T19:37:34.280Z,98630.78
2018-10-19T19:40:02.822Z,98636.55
2018-10-19T19:42:36.363Z,98641.61
2018-10-19T19:45:05.006Z,98640.16
2018-10-19T19:47:38.653Z,98643.91
2018-10-19T19:50:06.964Z,98644.78
2018-10-19T19:52:35.107Z,98644.39
2018-10-19T19:55:03.352Z,98656.73
2018-10-19T19:57:31.547Z,98652.54
2018-10-19T19:59:59.788Z,98652.30
2018-10-19T20:02:28.009Z,98644.70
2018-10-19T20:04:56.235Z,98644.27
2018-10-19T20:07:24.402Z,98652.61
2018-10-19T20:09:53.056Z,98645.25
2018-10-19T20:12:21.412Z,98644.98
2018-10-19T20:14:49.551Z,98651.36
2018-10-19T20:17:17.768Z,98659.81
2018-10-19T20:19:45.978Z,98653.41
2018-10-19T20:22:14.178Z,98666.67
2018-10-19T20:24:42.494Z,98670.64
2018-10-19T20:27:10.675Z,98677.36
2018-10-19T20:29:38.873Z,98675.47
2018-10-19T20:32:07.458Z,98674.58
2018-10-19T20:34:35.658Z,98676.63
2018-10-19T20:37:03.939Z,98674.98
2018-10-19T20:39:32.235Z,98683.61
2018-10-19T20:42:00.816Z,98682.31
2018-10-19T20:44:29.007Z,98682.22
2018-10-19T20:46:57.328Z,98683.11
2018-10-19T20:49:25.480Z,98688.57
2018-10-19T20:51:53.750Z,98683.64
2018-10-19T20:54:22.177Z,98685.42
2018-10-19T20:56:50.383Z,98684.13
2018-10-19T20:59:18.762Z,98690.73
2018-10-19T21:01:47.019Z,98694.86
2018-10-19T21:04:15.264Z,98692.91
2018-10-19T21:06:43.475Z,98697.28
2018-10-19T21:09:12.453Z,98701.52
2018-10-19T21:11:40.770Z,98702.95
2018-10-19T21:14:09.210Z,98704.99
2018-10-19T21:16:37.388Z,98703.81
2018-10-19T21:19:05.619Z,98697.14
2018-10-19T21:21:34.010Z,98699.53
2018-10-19T21:24:02.212Z,98703.38
2018-10-19T21:26:30.635Z,98703.19
2018-10-19T21:28:58.843Z,98710.21
2018-10-19T21:31:27.150Z,98707.50
2018-10-19T21:33:55.362Z,98707.42
2018-10-19T21:36:23.633Z,98709.12
2018-10-19T21:38:51.873Z,98720.28
2018-10-19T21:41:20.266Z,98718.53
2018-10-19T21:43:48.521Z,98715.02
2018-10-19T21:46:16.773Z,98725.89
2018-10-19T21:48:45.219Z,98723.70
2018-10-19T21:51:13.419Z,98725.48
2018-10-19T21:53:41.691Z,98729.16
2018-10-19T21:56:09.955Z,98734.37
2018-10-19T21:58:38.184Z,98728.50
2018-10-19T22:01:06.459Z,98727.50
2018-10-19T22:03:34.719Z,98726.19
2018-10-19T22:06:02.912Z,98726.25
2018-10-19T22:08:31.615Z,98731.36
2018-10-19T22:11:00.119Z,98729.50
2018-10-19T22:13:28.314Z,98732.77
2018-10-19T22:15:56.866Z,98741.48
2018-10-19T22:18:25.037Z,98738.48
2018-10-19T22:20:53.271Z,98731.20
2018-10-19T22:23:21.548Z,98737.92
2018-10-19T22:25:49.723Z,98743.09
2018-10-19T22:28:18.193Z,98742.61
2018-10-19T22:30:46.427Z,98748.28
2018-10-19T22:33:14.673Z,98746.02
2018-10-19T22:35:42.848Z,98745.25
2018-10-19T22:38:11.114Z,98755.58
2018-10-19T22:40:39.381Z,98761.38
2018-10-19T22:43:07.665Z,98756.36
2018-10-19T22:45:35.833Z,98760.58
2018-10-19T22:48:04.108Z,98758.86
2018-10-19T22:50:32.303Z,98760.31
2018-10-19T22:53:00.548Z,98759.13
2018-10-19T22:55:29.077Z,98754.98
2018-10-19T22:57:57.258Z,98749.95
2018-10-19T23:00:25.501Z,98750.67
2018-10-19T23:02:53.712Z,98756.72
2018-10-19T23:05:21.885Z,98755.75
2018-10-19T23:07:50.072Z,98754.19
2018-10-19T23:10:18.252Z,98755.59
2018-10-19T23:12:46.454Z,98752.92
2018-10-19T23:15:14.648Z,98757.57
2018-10-19T23:17:42.824Z,98753.52
2018-10-19T23:20:11.109Z,98764.75
2018-10-19T23:22:39.310Z,98762.67
2018-10-19T23:25:08.148Z,98761.83
2018-10-19T23:27:36.289Z,98763.77
2018-10-19T23:30:04.714Z,98774.70
2018-10-19T23:32:32.897Z,98777.19
2018-10-19T23:35:01.136Z,98766.52
2018-10-19T23:37:29.381Z,98767.83
2018-10-19T23:39:57.590Z,98764.36
2018-10-19T23:42:25.775Z,98772.22
2018-10-19T23:44:53.961Z,98773.93
2018-10-19T23:47:22.413Z,98779.08
2018-10-19T23:49:50.656Z,98776.56
2018-10-19T23:52:18.885Z,98778.21
2018-10-19T23:54:47.348Z,98780.55
2018-10-19T23:57:15.525Z,98774.92
2018-10-19T23:59:43.727Z,98775.86
